Time;durP1;ratioP1;P1;durP2;ratioP2;P2;SDS_P1;SDS_P2;PMS_P1;PMS_P2;Temp;Humidity;BMP_temperature;BMP_pressure;BME280_temperature;BME280_humidity;BME280_pressure;Samples;Min_cycle;Max_cycle;Signal;HPM_P1;HPM_P2
2022/01/02 00:01:51;;;;;;;9.82;5.03;;;;;;;8.81;100.00;100790.47;5958352;29;20051;-89
2022/01/02 00:05:01;;;;;;;7.72;4.72;;;;;;;8.81;100.00;100789.66;5955859;29;20043;-90
2022/01/02 00:08:09;;;;;;;8.32;4.63;;;;;;;8.78;100.00;100803.59;5957004;29;20722;-90
2022/01/02 00:11:13;;;;;;;8.95;5.40;;;;;;;8.72;100.00;100811.78;5955863;29;20047;-89
2022/01/02 00:14:20;;;;;;;7.70;4.85;;;;;;;8.69;100.00;100800.81;5956385;29;20050;-89
2022/01/02 00:17:23;;;;;;;8.23;4.45;;;;;;;8.73;100.00;100786.78;5957323;29;20062;-89
2022/01/02 00:20:32;;;;;;;6.43;3.80;;;;;;;8.80;100.00;100788.03;5949592;29;20057;-89
2022/01/02 00:23:48;;;;;;;7.28;4.15;;;;;;;8.99;100.00;100793.59;5957047;29;20081;-89
2022/01/02 00:26:51;;;;;;;8.07;4.18;;;;;;;9.16;100.00;100799.34;5956715;29;20057;-89
2022/01/02 00:29:56;;;;;;;7.63;3.85;;;;;;;9.19;100.00;100805.16;5956428;29;20160;-89
2022/01/02 00:32:58;;;;;;;7.18;3.65;;;;;;;9.19;100.00;100817.22;5954954;29;20066;-89
2022/01/02 00:36:04;;;;;;;7.60;4.15;;;;;;;9.30;100.00;100822.47;5961716;29;20300;-89
2022/01/02 00:39:07;;;;;;;6.75;4.03;;;;;;;9.32;100.00;100832.72;5953478;29;20151;-89
2022/01/02 00:42:29;;;;;;;7.28;4.53;;;;;;;9.42;100.00;100831.16;5956488;29;20050;-89
2022/01/02 00:45:45;;;;;;;5.55;4.10;;;;;;;9.43;100.00;100817.28;5954281;29;20050;-89
2022/01/02 00:48:48;;;;;;;6.93;4.15;;;;;;;9.39;100.00;100815.84;5956201;29;20500;-89
2022/01/02 00:52:06;;;;;;;8.27;4.57;;;;;;;9.52;100.00;100827.00;5956619;29;20062;-89
2022/01/02 00:55:20;;;;;;;9.45;4.85;;;;;;;9.48;100.00;100828.13;5956400;29;20070;-89
2022/01/02 00:58:30;;;;;;;8.13;4.43;;;;;;;9.46;100.00;100825.63;5970069;29;20593;-89
2022/01/02 01:01:58;;;;;;;8.30;4.43;;;;;;;9.39;100.00;100814.09;5956505;29;20417;-89
2022/01/02 01:05:04;;;;;;;7.05;4.22;;;;;;;9.42;100.00;100805.31;5948601;29;20314;-89
2022/01/02 01:08:08;;;;;;;8.65;4.40;;;;;;;9.43;100.00;100800.03;5956294;29;20047;-89
2022/01/02 01:11:11;;;;;;;7.88;4.60;;;;;;;9.33;100.00;100787.84;5954518;29;20089;-89
2022/01/02 01:14:13;;;;;;;7.05;4.70;;;;;;;9.30;100.00;100778.56;5954260;29;20569;-89
2022/01/02 01:17:16;;;;;;;8.38;5.15;;;;;;;9.33;100.00;100773.19;5956473;29;20051;-89
2022/01/02 01:20:19;;;;;;;7.15;5.40;;;;;;;9.38;100.00;100762.53;5954412;29;20047;-89
2022/01/02 01:23:28;;;;;;;7.88;4.63;;;;;;;9.32;100.00;100750.06;5956332;29;20168;-89
2022/01/02 01:26:31;;;;;;;7.38;4.40;;;;;;;9.31;100.00;100746.63;5939582;29;20057;-89
2022/01/02 01:29:35;;;;;;;7.82;4.35;;;;;;;9.39;100.00;100751.25;5955890;29;20357;-89
2022/01/02 01:32:39;;;;;;;6.47;3.70;;;;;;;9.46;100.00;100744.72;5954203;29;20580;-89
2022/01/02 01:35:42;;;;;;;7.72;4.20;;;;;;;9.48;100.00;100722.19;5965864;29;20071;-89
2022/01/02 01:38:44;;;;;;;8.32;4.40;;;;;;;9.47;100.00;100723.94;5952202;29;20533;-89
2022/01/02 01:41:47;;;;;;;5.18;3.72;;;;;;;9.52;100.00;100733.97;5942260;29;20043;-89
2022/01/02 01:47:57;;;;;;;7.35;4.35;;;;;;;9.48;100.00;100764.34;5950136;29;20055;-89
2022/01/02 01:50:59;;;;;;;8.50;4.03;;;;;;;9.44;100.00;100762.09;5966116;29;20113;-89
2022/01/02 01:54:01;;;;;;;8.13;4.20;;;;;;;9.47;100.00;100756.72;5950197;29;20481;-89
2022/01/02 01:57:03;;;;;;;7.72;4.03;;;;;;;9.46;100.00;100768.78;5951668;29;20045;-89
2022/01/02 02:00:21;;;;;;;8.35;4.53;;;;;;;9.44;100.00;100762.09;5954437;29;20055;-89
2022/01/02 02:03:29;;;;;;;10.88;4.70;;;;;;;9.44;100.00;100746.59;5952034;29;20601;-89
2022/01/02 02:06:34;;;;;;;6.95;4.18;;;;;;;9.51;100.00;100754.72;5949169;29;20050;-89
2022/01/02 02:12:58;;;;;;;6.03;3.28;;;;;;;9.57;100.00;100757.72;5947165;29;20427;-89
2022/01/02 02:16:05;;;;;;;8.48;4.15;;;;;;;9.60;100.00;100746.34;5953907;29;20492;-89
2022/01/02 02:19:07;;;;;;;7.20;3.95;;;;;;;9.62;100.00;100750.47;5947513;29;20047;-89
2022/01/02 02:22:09;;;;;;;6.07;3.92;;;;;;;9.74;100.00;100753.09;5953243;29;20417;-89
2022/01/02 02:25:13;;;;;;;7.28;3.90;;;;;;;9.67;100.00;100747.56;5956296;29;20160;-89
2022/01/02 02:28:17;;;;;;;7.85;4.15;;;;;;;9.73;100.00;100752.28;5953591;29;20137;-89
2022/01/02 02:31:23;;;;;;;7.95;3.90;;;;;;;9.69;100.00;100751.69;5949615;29;20062;-89
2022/01/02 02:34:25;;;;;;;8.40;3.78;;;;;;;9.68;100.00;100752.59;5956438;29;20058;-89
2022/01/02 02:37:30;;;;;;;7.63;3.97;;;;;;;9.62;100.00;100745.28;5959631;29;20058;-89
2022/01/02 02:40:32;;;;;;;7.13;3.53;;;;;;;9.64;100.00;100740.84;5956747;29;20051;-89
2022/01/02 02:50:00;;;;;;;6.45;3.75;;;;;;;9.63;100.00;100779.72;5948882;29;20062;-89
2022/01/02 02:53:02;;;;;;;10.20;4.32;;;;;;;9.62;100.00;100778.06;5958552;29;20670;-89
2022/01/02 02:56:15;;;;;;;7.03;4.40;;;;;;;9.79;100.00;100762.19;5958755;29;20509;-89
2022/01/02 02:59:17;;;;;;;6.22;3.78;;;;;;;9.76;100.00;100771.91;5958976;29;20055;-89
2022/01/02 03:02:19;;;;;;;5.97;3.40;;;;;;;9.82;100.00;100758.56;5960339;29;20066;-89
2022/01/02 03:05:22;;;;;;;9.30;4.65;;;;;;;9.87;100.00;100752.09;5958782;29;20141;-89
2022/01/02 03:08:26;;;;;;;6.07;3.80;;;;;;;9.90;100.00;100763.97;5946196;29;20195;-89
2022/01/02 03:11:30;;;;;;;8.25;4.68;;;;;;;9.98;100.00;100755.66;5959805;29;20069;-89
2022/01/02 03:14:32;;;;;;;8.02;4.22;;;;;;;9.97;100.00;100761.78;5958468;29;20047;-89
2022/01/02 03:17:35;;;;;;;9.50;4.78;;;;;;;9.78;100.00;100764.88;5945810;29;20628;-90
2022/01/02 03:20:39;;;;;;;8.55;4.82;;;;;;;9.58;100.00;100766.28;5951902;29;20058;-90
2022/01/02 03:23:41;;;;;;;10.25;5.30;;;;;;;9.48;100.00;100758.34;5933283;29;20289;-90
2022/01/02 03:26:57;;;;;;;7.75;4.60;;;;;;;9.36;100.00;100743.72;5962409;29;20074;-90
2022/01/02 03:30:02;;;;;;;6.60;3.85;;;;;;;9.23;100.00;100723.91;5960002;29;20059;-90
2022/01/02 03:33:04;;;;;;;7.30;4.72;;;;;;;9.16;100.00;100722.69;5958127;29;20046;-90
2022/01/02 03:36:07;;;;;;;9.60;4.53;;;;;;;9.13;100.00;100719.50;5957329;29;20501;-89
2022/01/02 03:39:12;;;;;;;6.32;4.03;;;;;;;9.14;100.00;100722.00;5951171;29;20054;-89
2022/01/02 03:42:27;;;;;;;7.35;4.45;;;;;;;9.11;100.00;100722.19;5957273;29;20062;-89
2022/01/02 03:45:31;;;;;;;12.27;4.63;;;;;;;9.07;100.00;100713.03;5958075;29;20854;-89
2022/01/02 03:48:34;;;;;;;9.05;4.70;;;;;;;9.07;100.00;100707.88;5959152;29;20725;-89
2022/01/02 03:51:40;;;;;;;8.93;5.10;;;;;;;9.02;100.00;100702.19;5957684;29;20050;-89
2022/01/02 03:54:44;;;;;;;9.80;4.35;;;;;;;9.06;100.00;100706.19;5959260;29;20138;-89
2022/01/02 03:57:46;;;;;;;6.80;4.28;;;;;;;9.06;100.00;100707.00;5959881;29;20042;-89
2022/01/02 04:00:48;;;;;;;8.52;4.68;;;;;;;9.04;100.00;100706.31;5958978;29;20057;-89
2022/01/02 04:03:51;;;;;;;8.90;4.85;;;;;;;9.06;100.00;100691.53;5959087;29;20095;-89
2022/01/02 04:06:55;;;;;;;8.75;4.70;;;;;;;9.03;100.00;100686.56;5959634;29;20063;-89
2022/01/02 04:10:01;;;;;;;8.85;4.28;;;;;;;8.99;100.00;100674.84;5959210;29;20054;-89
2022/01/02 04:13:03;;;;;;;7.97;5.03;;;;;;;8.98;100.00;100678.31;5973456;29;20801;-89
2022/01/02 04:16:06;;;;;;;10.00;5.30;;;;;;;8.97;100.00;100679.28;5972741;29;20130;-89
2022/01/02 04:19:08;;;;;;;10.20;5.28;;;;;;;8.94;100.00;100658.81;5959149;29;20083;-89
2022/01/02 04:22:11;;;;;;;7.57;4.60;;;;;;;8.94;100.00;100640.75;5958488;29;20608;-89
2022/01/02 04:25:13;;;;;;;7.60;4.47;;;;;;;8.94;100.00;100630.41;5957735;29;20061;-89
2022/01/02 04:28:15;;;;;;;9.20;4.63;;;;;;;8.94;100.00;100635.56;5959286;29;20047;-89
2022/01/02 04:31:18;;;;;;;7.38;4.28;;;;;;;8.92;100.00;100616.81;5959164;29;20086;-89
2022/01/02 04:34:20;;;;;;;7.90;4.50;;;;;;;8.90;100.00;100598.03;5959566;29;20429;-89
2022/01/02 04:37:23;;;;;;;9.15;4.70;;;;;;;8.90;100.00;100585.13;5957982;29;20047;-89
2022/01/02 04:40:26;;;;;;;6.45;4.47;;;;;;;8.92;100.00;100605.63;5958401;29;20078;-89
2022/01/02 04:43:29;;;;;;;6.35;4.53;;;;;;;8.91;100.00;100611.75;5959176;29;20466;-89
2022/01/02 04:46:31;;;;;;;8.60;5.43;;;;;;;8.88;100.00;100604.22;5957536;29;20584;-89
2022/01/02 04:49:34;;;;;;;8.63;4.43;;;;;;;8.89;100.00;100595.53;5956238;29;20059;-89
2022/01/02 04:52:37;;;;;;;7.78;4.93;;;;;;;8.89;100.00;100580.06;5955674;29;20073;-89
2022/01/02 04:55:40;;;;;;;9.05;4.63;;;;;;;8.86;100.00;100585.44;5957376;29;20054;-89
2022/01/02 04:58:43;;;;;;;7.00;4.05;;;;;;;8.86;100.00;100590.59;5957648;29;20042;-89
2022/01/02 05:01:46;;;;;;;9.40;4.15;;;;;;;8.91;100.00;100597.06;5957124;29;20107;-89
2022/01/02 05:04:48;;;;;;;7.45;3.60;;;;;;;8.91;100.00;100594.50;5957142;29;20043;-90
2022/01/02 05:07:50;;;;;;;6.57;3.40;;;;;;;8.96;100.00;100595.00;5957031;29;20522;-89
2022/01/02 05:10:53;;;;;;;9.25;3.30;;;;;;;9.01;100.00;100585.16;5957133;29;20107;-90
2022/01/02 05:13:57;;;;;;;6.15;3.45;;;;;;;9.06;100.00;100572.75;5957581;29;20087;-90
2022/01/02 05:17:13;;;;;;;8.95;3.45;;;;;;;9.11;100.00;100569.00;5959976;29;20051;-90
2022/01/02 05:20:16;;;;;;;7.22;3.60;;;;;;;9.13;100.00;100569.72;5958657;29;20133;-90
2022/01/02 05:23:36;;;;;;;7.53;3.83;;;;;;;9.09;100.00;100574.28;5958715;29;20487;-90
2022/01/02 05:26:38;;;;;;;7.18;3.72;;;;;;;9.09;100.00;100569.13;5960360;29;20514;-90
2022/01/02 05:29:41;;;;;;;6.30;3.47;;;;;;;9.11;100.00;100577.56;5960086;29;20050;-90
2022/01/02 05:32:43;;;;;;;10.35;4.75;;;;;;;9.05;100.00;100565.94;5943369;29;20130;-90
2022/01/02 05:35:45;;;;;;;6.65;4.47;;;;;;;9.13;100.00;100567.16;5957089;29;20058;-90
2022/01/02 05:38:48;;;;;;;8.05;4.55;;;;;;;9.04;100.00;100553.13;5960381;29;20170;-90
2022/01/02 05:41:51;;;;;;;9.27;4.50;;;;;;;8.98;100.00;100551.81;5959750;29;20057;-90
2022/01/02 05:44:57;;;;;;;10.93;5.18;;;;;;;8.92;100.00;100546.25;5959959;29;20582;-90
2022/01/02 05:48:01;;;;;;;6.57;4.22;;;;;;;8.92;100.00;100548.84;5959074;29;20063;-90
2022/01/02 05:51:05;;;;;;;10.52;5.20;;;;;;;8.90;100.00;100543.00;5959817;29;20469;-90
2022/01/02 05:54:07;;;;;;;9.50;4.40;;;;;;;8.93;100.00;100528.09;5964797;29;20047;-91
2022/01/02 05:57:09;;;;;;;8.10;4.60;;;;;;;8.97;100.00;100533.88;5958615;29;20054;-90
2022/01/02 06:00:12;;;;;;;7.35;4.40;;;;;;;8.93;100.00;100530.69;5956474;29;20047;-90
2022/01/02 06:03:27;;;;;;;8.30;4.50;;;;;;;8.97;100.00;100529.53;5967045;29;20065;-90
2022/01/02 06:06:30;;;;;;;4.88;3.20;;;;;;;9.00;100.00;100520.75;5962161;29;20115;-91
2022/01/02 06:09:32;;;;;;;5.43;3.25;;;;;;;9.04;100.00;100532.47;5962129;29;20070;-90
2022/01/02 06:12:35;;;;;;;8.43;3.35;;;;;;;9.08;100.00;100528.75;5960605;29;20112;-90
2022/01/02 06:15:37;;;;;;;7.22;3.13;;;;;;;9.14;100.00;100528.31;5959983;29;20062;-90
2022/01/02 06:18:40;;;;;;;8.07;3.70;;;;;;;9.16;100.00;100541.91;5960518;29;20047;-90
2022/01/02 06:21:42;;;;;;;6.43;2.75;;;;;;;9.23;100.00;100542.31;5962496;29;20050;-90
2022/01/02 06:24:45;;;;;;;6.45;2.97;;;;;;;9.30;100.00;100529.78;5958037;29;20065;-90
2022/01/02 06:27:49;;;;;;;7.20;3.10;;;;;;;9.31;100.00;100524.47;5961401;29;20058;-90
2022/01/02 06:30:51;;;;;;;8.65;3.47;;;;;;;9.27;100.00;100520.50;5961682;29;20263;-90
2022/01/02 06:33:54;;;;;;;7.20;2.92;;;;;;;9.27;100.00;100523.06;5959823;29;20162;-90
2022/01/02 06:36:56;;;;;;;8.40;3.17;;;;;;;9.30;100.00;100520.25;5960248;29;20058;-90
2022/01/02 06:39:59;;;;;;;7.53;3.55;;;;;;;9.27;100.00;100512.75;5959964;29;20648;-90
2022/01/02 06:43:01;;;;;;;6.22;3.40;;;;;;;9.25;100.00;100519.78;5961642;29;20043;-90
2022/01/02 06:46:05;;;;;;;7.82;3.35;;;;;;;9.26;100.00;100505.91;5959746;29;20058;-89
2022/01/02 06:49:07;;;;;;;7.97;3.30;;;;;;;9.26;100.00;100506.72;5959642;29;20051;-89
2022/01/02 06:52:23;;;;;;;8.57;3.15;;;;;;;9.22;100.00;100489.00;5949457;29;20188;-89
2022/01/02 06:55:25;;;;;;;6.03;3.22;;;;;;;9.18;100.00;100483.22;5958393;29;20057;-89
2022/01/02 06:58:27;;;;;;;7.47;2.92;;;;;;;9.16;100.00;100473.97;5944438;29;20051;-89
2022/01/02 07:01:44;;;;;;;6.95;2.85;;;;;;;9.15;100.00;100483.47;5945956;29;20059;-89
2022/01/02 07:04:48;;;;;;;8.60;3.15;;;;;;;9.14;100.00;100473.25;5959455;29;20172;-89
2022/01/02 07:07:52;;;;;;;10.43;3.28;;;;;;;9.19;100.00;100473.72;5958844;29;20745;-89
2022/01/02 07:10:56;;;;;;;6.57;2.40;;;;;;;9.21;100.00;100474.44;5951618;29;20146;-89
2022/01/02 07:13:58;;;;;;;9.88;3.05;;;;;;;9.21;100.00;100472.66;5938285;29;20259;-89
2022/01/02 07:17:01;;;;;;;5.82;2.90;;;;;;;9.21;100.00;100477.84;5937074;30;20059;-89
2022/01/02 07:20:13;;;;;;;4.88;2.72;;;;;;;9.23;100.00;100480.31;5938469;29;20055;-89
2022/01/02 07:23:15;;;;;;;6.32;2.75;;;;;;;9.24;100.00;100474.19;5945490;29;20135;-89
2022/01/02 07:26:17;;;;;;;10.52;2.70;;;;;;;9.27;100.00;100474.81;5959794;29;20043;-89
2022/01/02 07:29:19;;;;;;;12.18;3.47;;;;;;;9.35;100.00;100471.66;5959398;29;20450;-89
2022/01/02 07:32:21;;;;;;;6.75;2.83;;;;;;;9.36;100.00;100465.53;5959938;29;20069;-89
2022/01/02 07:35:23;;;;;;;10.25;3.35;;;;;;;9.35;100.00;100463.09;5958995;29;20062;-89
2022/01/02 07:38:27;;;;;;;10.65;3.53;;;;;;;9.38;100.00;100462.84;5960525;29;20069;-89
2022/01/02 07:41:28;;;;;;;10.00;3.05;;;;;;;9.38;100.00;100460.28;5961417;29;20079;-89
2022/01/02 07:44:31;;;;;;;7.00;2.65;;;;;;;9.42;100.00;100453.94;5959082;29;20659;-89
2022/01/02 07:47:32;;;;;;;6.05;2.53;;;;;;;9.44;100.00;100458.06;5959117;29;20058;-89
2022/01/02 07:50:34;;;;;;;7.95;2.95;;;;;;;9.51;100.00;100444.66;5959832;29;20078;-89
2022/01/02 07:53:37;;;;;;;9.98;3.20;;;;;;;9.56;100.00;100450.31;5958215;29;20106;-89
2022/01/02 07:56:40;;;;;;;7.85;3.30;;;;;;;9.55;100.00;100436.56;5959433;29;20123;-89
2022/01/02 07:59:42;;;;;;;5.82;2.90;;;;;;;9.58;100.00;100418.22;5959447;29;20050;-90
2022/01/02 08:03:12;;;;;;;9.20;2.65;;;;;;;9.57;100.00;100424.34;5960512;29;20055;-90
2022/01/02 08:06:15;;;;;;;4.82;2.65;;;;;;;9.57;100.00;100411.44;5959593;29;20043;-89
2022/01/02 08:09:17;;;;;;;7.82;3.03;;;;;;;9.57;100.00;100405.44;5959945;29;20497;-90
2022/01/02 08:12:19;;;;;;;8.43;3.05;;;;;;;9.58;100.00;100401.91;5958155;29;20081;-90
2022/01/02 08:15:21;;;;;;;9.02;2.63;;;;;;;9.57;100.00;100392.53;5958628;29;20528;-89
2022/01/02 08:18:24;;;;;;;9.32;2.95;;;;;;;9.62;100.00;100388.66;5972699;29;20058;-90
2022/01/02 08:21:26;;;;;;;6.95;2.97;;;;;;;9.62;100.00;100393.00;5959844;29;20065;-90
2022/01/02 08:24:28;;;;;;;5.53;2.40;;;;;;;9.64;100.00;100396.28;5958727;29;20050;-90
2022/01/02 08:27:30;;;;;;;6.65;3.00;;;;;;;9.63;100.00;100389.47;5959849;29;20076;-89
2022/01/02 08:30:33;;;;;;;6.95;3.20;;;;;;;9.65;100.00;100382.41;5960588;29;20059;-89
2022/01/02 08:33:36;;;;;;;5.93;2.92;;;;;;;9.70;100.00;100377.72;5959839;29;20571;-89
2022/01/02 08:36:38;;;;;;;13.07;3.42;;;;;;;9.71;100.00;100371.59;5943460;29;20287;-89
2022/01/02 08:39:41;;;;;;;11.70;4.50;;;;;;;9.74;100.00;100349.84;5959153;29;20065;-89
2022/01/02 08:42:43;;;;;;;7.97;3.03;;;;;;;9.76;100.00;100343.63;5959924;29;20050;-89
2022/01/02 08:45:45;;;;;;;8.00;3.08;;;;;;;9.76;100.00;100325.53;5974156;29;20188;-89
2022/01/02 08:48:47;;;;;;;8.60;3.35;;;;;;;9.79;100.00;100317.56;5971925;29;20039;-89
2022/01/02 08:51:50;;;;;;;8.63;3.60;;;;;;;9.75;100.00;100297.22;5958736;29;20084;-89
2022/01/02 08:54:52;;;;;;;8.77;3.85;;;;;;;9.76;100.00;100278.19;5958904;29;20097;-89
2022/01/02 08:57:55;;;;;;;9.55;3.20;;;;;;;9.75;100.00;100289.47;5956929;29;20140;-89
2022/01/02 09:00:57;;;;;;;8.75;3.42;;;;;;;9.74;100.00;100308.50;5956150;29;20066;-89
2022/01/02 09:03:59;;;;;;;8.38;4.15;;;;;;;9.70;100.00;100313.91;5957680;29;20042;-89
2022/01/02 09:07:02;;;;;;;11.57;4.05;;;;;;;9.69;100.00;100307.13;5946797;29;20051;-89
2022/01/02 09:10:04;;;;;;;11.90;5.20;;;;;;;9.69;100.00;100296.78;5961179;29;20042;-89
2022/01/02 09:13:08;;;;;;;8.57;3.50;;;;;;;9.70;100.00;100282.09;5964689;29;20058;-89
2022/01/02 09:16:10;;;;;;;5.28;3.60;;;;;;;9.72;100.00;100287.13;5974325;29;20050;-89
2022/01/02 09:19:13;;;;;;;9.25;4.05;;;;;;;9.72;100.00;100279.38;5967180;29;20057;-89
2022/01/02 09:22:15;;;;;;;8.30;3.92;;;;;;;9.72;100.00;100271.63;5965662;29;20051;-89
2022/01/02 09:25:18;;;;;;;9.13;3.28;;;;;;;9.70;100.00;100264.81;5965113;29;20046;-89
2022/01/02 09:28:19;;;;;;;10.52;4.38;;;;;;;9.74;100.00;100261.97;5973364;29;20058;-89
2022/01/02 09:31:22;;;;;;;9.50;3.55;;;;;;;9.80;100.00;100256.31;5975017;29;20535;-89
2022/01/02 09:34:24;;;;;;;10.60;3.83;;;;;;;9.84;100.00;100245.63;5955555;29;20104;-89
2022/01/02 09:37:27;;;;;;;8.60;3.40;;;;;;;9.91;100.00;100239.03;5974079;29;20139;-89
2022/01/02 09:40:29;;;;;;;8.18;3.85;;;;;;;9.93;100.00;100239.69;5968805;29;20043;-89
2022/01/02 09:43:32;;;;;;;8.32;3.45;;;;;;;9.95;100.00;100242.16;5965345;29;20229;-89
2022/01/02 09:46:37;;;;;;;7.03;3.90;;;;;;;9.97;100.00;100222.19;5975117;29;20050;-89
2022/01/02 09:49:42;;;;;;;7.38;3.92;;;;;;;9.99;100.00;100230.63;5982473;29;20054;-89
2022/01/02 09:53:00;;;;;;;7.35;3.70;;;;;;;10.03;100.00;100205.34;5970077;29;20603;-89
2022/01/02 09:56:02;;;;;;;9.23;3.88;;;;;;;10.16;100.00;100195.63;5971226;29;20081;-89
2022/01/02 09:59:04;;;;;;;7.55;4.22;;;;;;;10.29;100.00;100175.59;5973166;29;20053;-89
2022/01/02 10:02:07;;;;;;;6.75;3.83;;;;;;;10.43;100.00;100174.41;5970895;29;20047;-89
2022/01/02 10:05:09;;;;;;;9.10;4.55;;;;;;;10.56;100.00;100156.13;5962953;29;20674;-89
2022/01/02 10:08:34;;;;;;;8.35;4.72;;;;;;;10.63;100.00;100157.22;5977322;29;20477;-89
2022/01/02 10:11:40;;;;;;;11.35;4.57;;;;;;;10.67;100.00;100174.13;5973603;29;20057;-89
2022/01/02 10:14:42;;;;;;;9.18;4.18;;;;;;;10.75;100.00;100166.50;5977588;29;20535;-89
2022/01/02 10:18:08;;;;;;;9.23;4.43;;;;;;;10.80;100.00;100155.78;5974171;29;20050;-89
2022/01/02 10:21:10;;;;;;;9.57;4.80;;;;;;;10.78;100.00;100134.38;5970053;29;20046;-89
2022/01/02 10:24:23;;;;;;;7.82;4.30;;;;;;;10.75;100.00;100124.28;5963987;29;20093;-89
2022/01/02 10:27:27;;;;;;;8.70;4.30;;;;;;;10.73;100.00;100108.06;5974589;29;20152;-88
2022/01/02 10:30:30;;;;;;;8.43;4.00;;;;;;;10.70;100.00;100075.50;5974531;29;20613;-88
2022/01/02 10:34:00;;;;;;;7.90;5.32;;;;;;;10.73;100.00;100082.16;5976833;29;20077;-89
2022/01/02 10:37:02;;;;;;;11.93;4.13;;;;;;;10.97;100.00;100074.84;5961431;29;20055;-88
2022/01/02 10:40:05;;;;;;;10.02;4.18;;;;;;;11.12;100.00;100053.75;5976936;29;20073;-88
2022/01/02 10:43:23;;;;;;;8.77;4.30;;;;;;;11.15;100.00;100046.50;5972456;29;20119;-88
2022/01/02 10:46:25;;;;;;;10.32;6.43;;;;;;;11.05;100.00;100052.66;5974931;29;20046;-88
2022/01/02 10:49:46;;;;;;;10.10;4.57;;;;;;;11.10;100.00;100045.28;5973250;29;20051;-88
2022/01/02 10:52:48;;;;;;;11.40;3.42;;;;;;;11.29;100.00;100031.50;5967104;29;20842;-89
2022/01/02 10:55:50;;;;;;;8.25;3.60;;;;;;;11.47;100.00;100026.44;5968679;29;20042;-89
2022/01/02 10:58:52;;;;;;;10.00;3.67;;;;;;;11.38;100.00;100041.88;5969672;29;20087;-89
2022/01/02 11:01:55;;;;;;;10.43;4.10;;;;;;;11.29;100.00;100019.38;5978808;29;20192;-89
2022/01/02 11:05:06;;;;;;;12.77;3.97;;;;;;;11.32;100.00;100010.50;5973962;29;20049;-89
2022/01/02 11:08:08;;;;;;;7.25;3.58;;;;;;;11.38;100.00;100017.75;5969608;29;20134;-89
2022/01/02 11:11:10;;;;;;;8.05;3.80;;;;;;;11.45;100.00;100008.41;5960766;29;20043;-89
2022/01/02 11:14:14;;;;;;;6.63;4.22;;;;;;;11.45;100.00;99997.25;5971817;29;20516;-89
2022/01/02 11:17:17;;;;;;;8.75;4.18;;;;;;;11.47;100.00;99992.75;5973479;29;20054;-89
2022/01/02 11:20:22;;;;;;;6.40;3.78;;;;;;;11.52;100.00;99993.13;5977367;29;20082;-89
2022/01/02 11:23:52;;;;;;;6.63;3.67;;;;;;;11.57;100.00;99973.59;5972298;29;20047;-89
2022/01/02 11:27:40;;;;;;;6.40;3.50;;;;;;;11.57;100.00;99965.84;5974967;29;20045;-89
2022/01/02 11:30:42;;;;;;;8.40;4.00;;;;;;;11.41;100.00;99976.00;5962161;29;20054;-89
2022/01/02 11:33:46;;;;;;;7.22;3.47;;;;;;;11.33;100.00;99986.22;5978841;29;20072;-89
2022/01/02 11:36:49;;;;;;;9.52;4.10;;;;;;;11.24;100.00;99984.47;5971251;29;20065;-89
2022/01/02 11:40:03;;;;;;;5.90;3.03;;;;;;;11.28;100.00;99973.69;5979519;29;20045;-89
2022/01/02 11:43:07;;;;;;;6.43;3.13;;;;;;;11.35;100.00;99974.78;5971527;29;20046;-89
2022/01/02 11:46:42;;;;;;;4.68;3.10;;;;;;;11.48;100.00;99976.22;5964406;29;20053;-89
2022/01/02 11:49:45;;;;;;;4.45;2.95;;;;;;;11.67;100.00;99986.53;5975034;29;20046;-89
2022/01/02 11:53:17;;;;;;;4.38;2.58;;;;;;;11.73;100.00;100009.31;5974796;29;20108;-89
2022/01/02 11:56:32;;;;;;;4.78;2.90;;;;;;;11.60;100.00;100021.75;5956055;29;20058;-89
2022/01/02 11:59:56;;;;;;;8.13;3.00;;;;;;;11.51;100.00;100014.84;5970358;29;20054;-89
2022/01/02 12:02:58;;;;;;;5.80;2.90;;;;;;;11.34;100.00;100018.97;5975945;29;20053;-89
2022/01/02 12:06:33;;;;;;;8.00;3.03;;;;;;;11.07;100.00;99957.50;5971936;29;20126;-92
2022/01/02 12:09:37;;;;;;;7.00;3.58;;;;;;;10.75;100.00;99917.19;6117416;23;20053;-95
2022/01/02 12:13:10;;;;;;;10.30;3.25;;;;;;;10.53;100.00;99916.53;6021296;29;20800;-93
2022/01/02 12:16:13;;;;;;;6.82;2.90;;;;;;;10.37;100.00;99936.13;5994853;29;20050;-93
2022/01/02 12:19:15;;;;;;;9.27;3.30;;;;;;;10.31;100.00;99937.44;5993955;29;20110;-93
2022/01/02 12:22:17;;;;;;;5.97;2.75;;;;;;;10.19;100.00;99961.78;5991792;29;20030;-93
2022/01/02 12:25:23;;;;;;;5.97;3.00;;;;;;;10.31;100.00;99971.06;5989946;29;20529;-93
2022/01/02 12:28:28;;;;;;;6.15;3.40;;;;;;;10.55;100.00;99966.34;6002922;29;20490;-93
2022/01/02 12:31:50;;;;;;;4.45;2.92;;;;;;;10.63;100.00;99964.84;5996504;29;20041;-93
2022/01/02 12:34:57;;;;;;;5.30;2.80;;;;;;;10.76;100.00;99958.47;5989606;29;20049;-93
2022/01/02 12:38:06;;;;;;;6.82;2.85;;;;;;;10.94;100.00;99968.97;5994533;29;20093;-93
2022/01/02 12:41:09;;;;;;;5.88;2.80;;;;;;;11.11;100.00;99966.63;5997749;29;20061;-90
2022/01/02 12:44:15;;;;;;;5.93;2.53;;;;;;;11.17;100.00;99966.88;6001261;29;20420;-90
2022/01/02 12:47:19;;;;;;;3.72;2.63;;;;;;;11.14;100.00;99966.34;5989921;29;20049;-90
2022/01/02 12:50:32;;;;;;;7.40;3.00;;;;;;;11.10;100.00;99955.44;5993526;29;20085;-90
2022/01/02 12:53:34;;;;;;;6.25;3.13;;;;;;;11.09;100.00;99946.03;5996556;29;20045;-89
2022/01/02 12:56:40;;;;;;;6.53;3.00;;;;;;;11.09;100.00;99942.66;5991578;29;20064;-89
2022/01/02 12:59:46;;;;;;;5.22;2.80;;;;;;;11.20;100.00;99956.25;5994992;29;20560;-89
2022/01/02 13:02:52;;;;;;;4.57;2.50;;;;;;;11.33;100.00;99955.97;5997479;29;20038;-89
2022/01/02 13:06:07;;;;;;;5.53;2.85;;;;;;;11.39;100.00;99963.16;5990460;29;20050;-89
2022/01/02 13:09:09;;;;;;;7.63;2.60;;;;;;;11.53;100.00;99946.34;5997560;29;20522;-89
2022/01/02 13:12:35;;;;;;;6.75;2.67;;;;;;;11.63;100.00;99948.91;5999318;29;20541;-89
2022/01/02 13:15:37;;;;;;;6.85;2.97;;;;;;;11.70;100.00;99970.72;5991461;29;20519;-89
2022/01/02 13:18:39;;;;;;;5.07;3.05;;;;;;;11.74;100.00;99981.63;5996559;29;20054;-89
2022/01/02 13:21:41;;;;;;;4.97;3.40;;;;;;;11.78;100.00;99967.41;5995846;29;20042;-89
2022/01/02 13:24:45;;;;;;;5.60;3.10;;;;;;;11.76;100.00;99964.16;5995870;29;20269;-89
2022/01/02 13:28:03;;;;;;;7.75;3.33;;;;;;;11.66;100.00;99971.97;5994007;29;20077;-88
2022/01/02 13:31:06;;;;;;;4.07;3.40;;;;;;;11.62;100.00;99978.38;5997862;29;21115;-89
2022/01/02 13:34:27;;;;;;;5.25;4.00;;;;;;;11.56;100.00;99973.75;5993079;29;20464;-89
2022/01/02 13:37:34;;;;;;;6.65;3.60;;;;;;;11.54;100.00;99983.44;5993080;29;20054;-89
2022/01/02 13:40:44;;;;;;;5.18;3.63;;;;;;;11.49;100.00;99988.25;6000562;29;20045;-89
2022/01/02 13:43:52;;;;;;;4.63;3.38;;;;;;;11.51;100.00;99978.56;5995353;29;20046;-89
2022/01/02 13:47:00;;;;;;;5.03;3.22;;;;;;;11.49;100.00;99970.09;5998701;29;20062;-89
2022/01/02 13:50:27;;;;;;;4.88;3.33;;;;;;;11.50;100.00;99966.53;5993906;29;20512;-89
2022/01/02 13:53:33;;;;;;;5.25;3.58;;;;;;;11.44;100.00;99967.94;5993897;29;20054;-88
2022/01/02 13:56:56;;;;;;;9.60;3.83;;;;;;;11.38;100.00;99978.88;5997151;29;20042;-89
2022/01/02 14:00:22;;;;;;;5.40;3.60;;;;;;;11.38;100.00;99969.31;5995147;29;20054;-89
2022/01/02 14:03:38;;;;;;;5.63;3.30;;;;;;;11.41;100.00;99950.88;5999687;29;20117;-88
2022/01/02 14:06:40;;;;;;;5.03;3.35;;;;;;;11.40;100.00;99958.78;5992629;29;20050;-88
2022/01/02 14:09:54;;;;;;;8.15;3.50;;;;;;;11.41;100.00;99966.44;5991174;29;20165;-89
2022/01/02 14:12:57;;;;;;;6.63;3.72;;;;;;;11.35;100.00;99951.47;5982449;29;20053;-88
2022/01/02 14:16:03;;;;;;;5.60;3.63;;;;;;;11.33;100.00;99966.31;5990484;29;20050;-89
2022/01/02 14:19:06;;;;;;;7.13;3.22;;;;;;;11.35;100.00;99956.66;5983885;29;20066;-88
2022/01/02 14:22:27;;;;;;;5.07;3.15;;;;;;;11.36;100.00;99963.44;5985342;29;20050;-89
2022/01/02 14:34:20;;;;;;;5.55;3.58;;;;;;;11.47;100.00;99984.97;5996804;29;20058;-89
2022/01/02 14:37:23;;;;;;;4.15;3.10;;;;;;;11.48;100.00;99978.81;5995389;29;20054;-89
2022/01/02 14:40:26;;;;;;;5.22;3.35;;;;;;;11.40;100.00;99985.53;5994122;29;20050;-89
2022/01/02 14:43:27;;;;;;;6.55;3.65;;;;;;;11.38;100.00;99974.50;6000086;29;20078;-89
2022/01/02 14:46:29;;;;;;;4.38;3.45;;;;;;;11.39;100.00;99978.72;5989288;29;20046;-89